Time;durP1;ratioP1;P1;durP2;ratioP2;P2;SDS_P1;SDS_P2;PMS_P1;PMS_P2;Temp;Humidity;BMP_temperature;BMP_pressure;BME280_temperature;BME280_humidity;BME280_pressure;Samples;Min_cycle;Max_cycle;Signal;HPM_P1;HPM_P2
2024/04/22 00:02:08;;;;;;;;;;;5.80;99.90;;;;;;5452889;26;19929;-75
2024/04/22 00:04:34;;;;;;;;;;;5.80;99.90;;;;;;5427501;26;20244;-76
2024/04/22 00:07:01;;;;;;;;;;;5.80;99.90;;;;;;5432257;26;19955;-75
2024/04/22 00:09:29;;;;;;;;;;;5.80;99.90;;;;;;5458817;26;19935;-76
2024/04/22 00:11:55;;;;;;;;;;;5.70;99.90;;;;;;5489189;26;19936;-75
2024/04/22 00:14:22;;;;;;;;;;;5.70;99.90;;;;;;5463269;26;19931;-75
2024/04/22 00:16:48;;;;;;;;;;;5.70;99.90;;;;;;5430610;26;20294;-76
2024/04/22 00:19:14;;;;;;;;;;;5.70;99.90;;;;;;5491411;25;19931;-75
2024/04/22 00:21:41;;;;;;;;;;;5.60;99.90;;;;;;5437163;26;19993;-76
2024/04/22 00:24:08;;;;;;;;;;;5.60;99.90;;;;;;5422272;26;20240;-77
2024/04/22 00:26:34;;;;;;;;;;;5.60;99.90;;;;;;5458068;26;19988;-75
2024/04/22 00:29:01;;;;;;;;;;;5.50;99.90;;;;;;5458464;26;19928;-75
2024/04/22 00:31:28;;;;;;;;;;;5.60;99.90;;;;;;5485252;26;19935;-77
2024/04/22 00:33:55;;;;;;;;;;;5.60;99.90;;;;;;5458644;26;19935;-76
2024/04/22 00:36:22;;;;;;;;;;;5.50;99.90;;;;;;5428100;26;19996;-75
2024/04/22 00:38:48;;;;;;;;;;;5.50;99.90;;;;;;5458420;26;19935;-76
2024/04/22 00:41:15;;;;;;;;;;;5.50;99.90;;;;;;5440591;26;19943;-77
2024/04/22 00:43:41;;;;;;;;;;;5.50;99.90;;;;;;5444375;26;19940;-76
2024/04/22 00:46:08;;;;;;;;;;;5.50;99.90;;;;;;5428115;26;20405;-76
2024/04/22 00:48:35;;;;;;;;;;;5.40;99.90;;;;;;5428861;26;19932;-76
2024/04/22 00:51:02;;;;;;;;;;;5.40;99.90;;;;;;5457848;26;19959;-76
2024/04/22 00:53:29;;;;;;;;;;;5.40;99.90;;;;;;5398323;26;19928;-76
2024/04/22 00:55:56;;;;;;;;;;;5.30;99.90;;;;;;5439927;26;19928;-76
2024/04/22 00:58:23;;;;;;;;;;;5.30;99.90;;;;;;5493603;26;19934;-76
2024/04/22 01:00:50;;;;;;;;;;;5.30;99.90;;;;;;5457301;26;19932;-76
2024/04/22 01:03:17;;;;;;;;;;;5.30;99.90;;;;;;5466157;25;19927;-76
2024/04/22 01:05:44;;;;;;;;;;;5.20;99.90;;;;;;5457663;25;19943;-77
2024/04/22 01:08:11;;;;;;;;;;;5.20;99.90;;;;;;5455966;26;19927;-76
2024/04/22 01:10:38;;;;;;;;;;;5.20;99.90;;;;;;5456080;26;20259;-76
2024/04/22 01:13:03;;;;;;;;;;;5.20;99.90;;;;;;5444897;26;19934;-76
2024/04/22 01:15:31;;;;;;;;;;;5.20;99.90;;;;;;5515019;25;19928;-76
2024/04/22 01:17:58;;;;;;;;;;;5.20;99.90;;;;;;5455052;26;19932;-76
2024/04/22 01:20:24;;;;;;;;;;;5.10;99.90;;;;;;5497294;26;19927;-76
2024/04/22 01:22:51;;;;;;;;;;;5.10;99.90;;;;;;5444432;26;19997;-76
2024/04/22 01:25:18;;;;;;;;;;;5.10;99.90;;;;;;5469964;26;19935;-76
2024/04/22 01:27:44;;;;;;;;;;;5.10;99.90;;;;;;5458957;26;20344;-76
2024/04/22 01:30:11;;;;;;;;;;;5.00;99.90;;;;;;5486738;26;19928;-77
2024/04/22 01:32:38;;;;;;;;;;;5.00;99.90;;;;;;5457982;26;19932;-76
2024/04/22 01:35:05;;;;;;;;;;;5.00;99.90;;;;;;5423918;25;20255;-76
2024/04/22 01:37:32;;;;;;;;;;;4.90;99.90;;;;;;5429365;26;20018;-75
2024/04/22 01:39:59;;;;;;;;;;;5.00;99.90;;;;;;5439883;26;19993;-75
2024/04/22 01:42:25;;;;;;;;;;;5.00;99.90;;;;;;5457445;26;19935;-75
2024/04/22 01:44:52;;;;;;;;;;;4.90;99.90;;;;;;5458355;26;20252;-76
2024/04/22 01:47:19;;;;;;;;;;;4.90;99.90;;;;;;5460733;26;20005;-76
2024/04/22 01:49:45;;;;;;;;;;;4.90;99.90;;;;;;5462720;26;20250;-76
2024/04/22 01:52:13;;;;;;;;;;;4.80;99.90;;;;;;5502327;25;19927;-75
2024/04/22 01:54:40;;;;;;;;;;;4.80;99.90;;;;;;5499136;25;20532;-75
2024/04/22 01:57:07;;;;;;;;;;;4.80;99.90;;;;;;5454117;26;19928;-75
2024/04/22 01:59:34;;;;;;;;;;;4.70;99.90;;;;;;5425638;26;19932;-75
2024/04/22 02:02:00;;;;;;;;;;;4.70;99.90;;;;;;5426974;26;19935;-75
2024/04/22 02:04:27;;;;;;;;;;;4.60;99.90;;;;;;5486686;26;19936;-76
2024/04/22 02:06:54;;;;;;;;;;;4.50;99.90;;;;;;5479758;26;19935;-76
2024/04/22 02:09:21;;;;;;;;;;;4.50;99.90;;;;;;5485806;26;19960;-76
2024/04/22 02:11:49;;;;;;;;;;;4.50;99.90;;;;;;5426124;26;19995;-76
2024/04/22 02:14:15;;;;;;;;;;;4.50;99.90;;;;;;5456135;26;19931;-77
2024/04/22 02:16:42;;;;;;;;;;;4.40;99.90;;;;;;5456027;26;19935;-76
2024/04/22 02:19:09;;;;;;;;;;;4.40;99.90;;;;;;5456697;26;20284;-76
2024/04/22 02:21:36;;;;;;;;;;;4.40;99.90;;;;;;5460066;26;19927;-78
2024/04/22 02:24:02;;;;;;;;;;;4.30;99.90;;;;;;5490947;26;19936;-76
2024/04/22 02:26:29;;;;;;;;;;;4.30;99.90;;;;;;5487365;25;19927;-76
2024/04/22 02:28:56;;;;;;;;;;;4.30;99.90;;;;;;5529434;25;19927;-76
2024/04/22 02:31:23;;;;;;;;;;;4.30;99.90;;;;;;5456317;26;19928;-76
2024/04/22 02:33:51;;;;;;;;;;;4.30;99.90;;;;;;5412467;26;19952;-76
2024/04/22 02:36:17;;;;;;;;;;;4.10;99.90;;;;;;5431878;26;19934;-76
2024/04/22 02:38:44;;;;;;;;;;;4.10;99.90;;;;;;5483772;25;19975;-76
2024/04/22 02:41:11;;;;;;;;;;;4.10;99.90;;;;;;5467099;26;19932;-76
2024/04/22 02:43:38;;;;;;;;;;;4.00;99.90;;;;;;5465105;26;19927;-76
2024/04/22 02:46:04;;;;;;;;;;;4.00;99.90;;;;;;5432868;26;19972;-76
2024/04/22 02:48:31;;;;;;;;;;;3.90;99.90;;;;;;5473009;26;19960;-76
2024/04/22 02:51:01;;;;;;;;;;;3.90;99.90;;;;;;5495894;26;20359;-76
2024/04/22 02:53:31;;;;;;;;;;;3.90;99.90;;;;;;5464422;26;19927;-76
2024/04/22 02:55:58;;;;;;;;;;;3.90;99.90;;;;;;5459314;26;19934;-78
2024/04/22 02:58:23;;;;;;;;;;;3.90;99.90;;;;;;5433086;26;19934;-76
2024/04/22 03:00:54;;;;;;;;;;;3.80;99.90;;;;;;5437993;26;19928;-75
2024/04/22 03:03:22;;;;;;;;;;;3.80;99.90;;;;;;5435492;25;19927;-76
2024/04/22 03:05:48;;;;;;;;;;;3.80;99.90;;;;;;5479740;26;19928;-77
2024/04/22 03:08:15;;;;;;;;;;;3.70;99.90;;;;;;5484339;26;19927;-76
2024/04/22 03:10:42;;;;;;;;;;;3.70;99.90;;;;;;5489201;26;19936;-75
2024/04/22 03:13:09;;;;;;;;;;;3.70;99.90;;;;;;5450919;26;19928;-75
2024/04/22 03:15:36;;;;;;;;;;;3.70;99.90;;;;;;5445702;26;19929;-76
2024/04/22 03:18:03;;;;;;;;;;;3.70;99.90;;;;;;5393855;26;19935;-76
2024/04/22 03:20:30;;;;;;;;;;;3.60;99.90;;;;;;5408935;26;20356;-76
2024/04/22 03:22:57;;;;;;;;;;;3.60;99.90;;;;;;5384337;26;19929;-76
2024/04/22 03:25:24;;;;;;;;;;;3.50;99.90;;;;;;5452729;26;19994;-77
2024/04/22 03:27:51;;;;;;;;;;;3.50;99.90;;;;;;5458991;26;19943;-75
2024/04/22 03:30:18;;;;;;;;;;;3.50;99.90;;;;;;5475036;26;20035;-77
2024/04/22 03:32:45;;;;;;;;;;;3.40;99.90;;;;;;5430003;26;19929;-75
2024/04/22 03:35:12;;;;;;;;;;;3.40;99.90;;;;;;5417432;26;19994;-75
2024/04/22 03:37:39;;;;;;;;;;;3.30;99.90;;;;;;5393189;26;19929;-76
2024/04/22 03:40:06;;;;;;;;;;;3.30;99.90;;;;;;5453115;26;20631;-76
2024/04/22 03:42:33;;;;;;;;;;;3.30;99.90;;;;;;5454625;26;19928;-76
2024/04/22 03:45:00;;;;;;;;;;;3.30;99.90;;;;;;5423130;26;19932;-76
2024/04/22 03:50:13;;;;;;;;;;;3.30;99.90;;;;;;5452886;26;19935;-77
2024/04/22 03:52:39;;;;;;;;;;;3.30;99.90;;;;;;5392877;26;19932;-76
2024/04/22 03:55:05;;;;;;;;;;;3.30;99.90;;;;;;5416417;26;19933;-75
2024/04/22 03:57:32;;;;;;;;;;;3.30;99.90;;;;;;5416541;26;19928;-77
2024/04/22 03:59:59;;;;;;;;;;;3.30;99.90;;;;;;5386535;26;19941;-76
2024/04/22 04:02:26;;;;;;;;;;;3.20;99.90;;;;;;5416774;26;19933;-76
2024/04/22 04:04:53;;;;;;;;;;;3.20;99.90;;;;;;5416873;26;20528;-76
2024/04/22 04:07:20;;;;;;;;;;;3.10;99.90;;;;;;5382370;26;19936;-75
2024/04/22 04:09:47;;;;;;;;;;;3.10;99.90;;;;;;5426737;26;19933;-77
2024/04/22 04:12:14;;;;;;;;;;;3.10;99.90;;;;;;5483134;26;19940;-77
2024/04/22 04:14:41;;;;;;;;;;;3.10;99.90;;;;;;5422925;26;20002;-77
2024/04/22 04:17:07;;;;;;;;;;;3.10;99.90;;;;;;5423035;26;19940;-79
2024/04/22 04:19:34;;;;;;;;;;;3.10;99.90;;;;;;5452844;26;19929;-78
2024/04/22 04:22:01;;;;;;;;;;;3.10;99.90;;;;;;5450843;26;20421;-77
2024/04/22 04:24:28;;;;;;;;;;;3.10;99.90;;;;;;5489773;26;20452;-77
2024/04/22 04:26:55;;;;;;;;;;;3.10;99.90;;;;;;5452632;26;19928;-77
2024/04/22 04:29:21;;;;;;;;;;;3.10;99.90;;;;;;5455266;26;20229;-78
2024/04/22 04:31:48;;;;;;;;;;;3.10;99.90;;;;;;5453010;26;19928;-77
2024/04/22 04:34:16;;;;;;;;;;;3.10;99.90;;;;;;5452065;26;19928;-77
2024/04/22 04:36:43;;;;;;;;;;;3.10;99.90;;;;;;5458812;26;19928;-77
2024/04/22 04:39:09;;;;;;;;;;;3.00;99.90;;;;;;5476437;26;19940;-77
2024/04/22 04:41:36;;;;;;;;;;;3.00;99.90;;;;;;5476529;25;19927;-78
2024/04/22 04:44:03;;;;;;;;;;;3.00;99.90;;;;;;5421961;26;19944;-77
2024/04/22 04:46:30;;;;;;;;;;;3.00;99.90;;;;;;5421853;26;20352;-77
2024/04/22 04:48:57;;;;;;;;;;;3.00;99.90;;;;;;5453553;26;19957;-77
2024/04/22 04:51:24;;;;;;;;;;;3.00;99.90;;;;;;5458074;26;19928;-77
2024/04/22 04:53:51;;;;;;;;;;;3.00;99.90;;;;;;5439572;26;19994;-77
2024/04/22 04:56:17;;;;;;;;;;;3.00;99.90;;;;;;5422200;26;19929;-77
2024/04/22 04:58:44;;;;;;;;;;;3.00;99.90;;;;;;5482870;26;19934;-77
2024/04/22 05:01:11;;;;;;;;;;;3.00;99.90;;;;;;5494258;26;19943;-78
2024/04/22 05:03:38;;;;;;;;;;;3.10;99.90;;;;;;5462871;26;20354;-77
2024/04/22 05:06:05;;;;;;;;;;;3.10;99.90;;;;;;5398511;26;19994;-78
2024/04/22 05:08:32;;;;;;;;;;;3.10;99.90;;;;;;5451594;26;19976;-77
2024/04/22 05:11:02;;;;;;;;;;;3.10;99.90;;;;;;5449947;26;20295;-77
2024/04/22 05:13:29;;;;;;;;;;;3.10;99.90;;;;;;5453525;26;19936;-78
2024/04/22 05:15:56;;;;;;;;;;;3.10;99.90;;;;;;5421407;26;19956;-78
2024/04/22 05:18:22;;;;;;;;;;;3.10;99.90;;;;;;5452118;26;20248;-77
2024/04/22 05:20:49;;;;;;;;;;;3.20;99.90;;;;;;5457968;26;20305;-77
2024/04/22 05:23:16;;;;;;;;;;;3.20;99.90;;;;;;5481466;26;19932;-76
2024/04/22 05:25:43;;;;;;;;;;;3.30;99.90;;;;;;5451788;26;19993;-77
2024/04/22 05:28:10;;;;;;;;;;;3.30;99.90;;;;;;5442763;26;19927;-77
2024/04/22 05:30:37;;;;;;;;;;;3.30;99.90;;;;;;5525154;26;19927;-77
2024/04/22 05:36:09;;;;;;;;;;;3.30;99.90;;;;;;5468063;26;20304;-78
2024/04/22 05:38:48;;;;;;;;;;;3.40;99.90;;;;;;5456628;26;19994;-76
2024/04/22 05:41:15;;;;;;;;;;;3.40;99.90;;;;;;5410244;26;19941;-77
2024/04/22 05:43:42;;;;;;;;;;;3.50;99.90;;;;;;5421248;26;19936;-78
2024/04/22 05:46:10;;;;;;;;;;;3.50;99.90;;;;;;5450984;26;19936;-77
2024/04/22 05:48:37;;;;;;;;;;;3.50;99.90;;;;;;5451998;26;19928;-76
2024/04/22 05:51:04;;;;;;;;;;;3.60;99.90;;;;;;5431136;26;20361;-76
2024/04/22 05:53:30;;;;;;;;;;;3.60;99.90;;;;;;5450988;26;19986;-76
2024/04/22 05:55:56;;;;;;;;;;;3.60;99.90;;;;;;5450840;26;19929;-77
2024/04/22 05:58:26;;;;;;;;;;;3.70;99.90;;;;;;5421375;26;20294;-77
2024/04/22 06:00:52;;;;;;;;;;;3.70;99.90;;;;;;5476230;26;19936;-77
2024/04/22 06:03:19;;;;;;;;;;;3.80;99.90;;;;;;5448059;26;19935;-77
2024/04/22 06:05:45;;;;;;;;;;;3.80;99.90;;;;;;5433368;26;19934;-77
2024/04/22 06:08:12;;;;;;;;;;;3.90;99.90;;;;;;5462926;26;19928;-77
2024/04/22 06:10:38;;;;;;;;;;;3.90;99.90;;;;;;5457600;26;20598;-77
2024/04/22 06:13:05;;;;;;;;;;;4.00;99.90;;;;;;5427844;26;19935;-77
2024/04/22 06:15:32;;;;;;;;;;;4.00;99.90;;;;;;5388483;26;19940;-77
2024/04/22 06:17:58;;;;;;;;;;;4.10;99.90;;;;;;5419014;26;20237;-77
2024/04/22 06:20:25;;;;;;;;;;;4.10;99.90;;;;;;5389331;26;20516;-77
2024/04/22 06:22:52;;;;;;;;;;;4.20;99.90;;;;;;5392745;26;19939;-77
2024/04/22 06:25:20;;;;;;;;;;;4.20;99.90;;;;;;5421346;26;19937;-77
2024/04/22 06:27:48;;;;;;;;;;;4.30;99.90;;;;;;5417906;26;19929;-77
2024/04/22 06:30:14;;;;;;;;;;;4.30;99.90;;;;;;5418393;26;19935;-77
2024/04/22 06:32:41;;;;;;;;;;;4.40;99.90;;;;;;5456054;26;19944;-77
2024/04/22 06:35:08;;;;;;;;;;;4.40;99.90;;;;;;5424271;26;20275;-77
2024/04/22 06:37:35;;;;;;;;;;;4.40;99.90;;;;;;5427259;26;20419;-77
2024/04/22 06:40:01;;;;;;;;;;;4.50;99.90;;;;;;5417792;26;19929;-77
2024/04/22 06:42:29;;;;;;;;;;;4.50;99.90;;;;;;5388796;26;20339;-77
2024/04/22 06:44:55;;;;;;;;;;;4.50;99.90;;;;;;5419705;26;19995;-77
2024/04/22 06:47:22;;;;;;;;;;;4.50;99.90;;;;;;5399340;26;19972;-77
2024/04/22 06:49:49;;;;;;;;;;;4.60;99.90;;;;;;5390527;26;20247;-77
2024/04/22 06:52:16;;;;;;;;;;;4.60;99.90;;;;;;5422049;26;20302;-77
2024/04/22 06:54:42;;;;;;;;;;;4.70;99.90;;;;;;5427744;26;19935;-77
2024/04/22 06:57:10;;;;;;;;;;;4.70;99.90;;;;;;5430286;26;19936;-77
2024/04/22 06:59:38;;;;;;;;;;;4.80;99.90;;;;;;5388985;26;19933;-77
2024/04/22 07:02:05;;;;;;;;;;;4.90;99.90;;;;;;5434143;26;19928;-77
2024/04/22 07:04:32;;;;;;;;;;;4.90;99.90;;;;;;5460043;26;20341;-77
2024/04/22 07:06:58;;;;;;;;;;;4.90;99.90;;;;;;5437025;26;19939;-78
2024/04/22 07:09:26;;;;;;;;;;;5.00;99.90;;;;;;5458994;26;19959;-77
2024/04/22 07:11:52;;;;;;;;;;;5.00;99.90;;;;;;5441746;26;20360;-78
2024/04/22 07:14:19;;;;;;;;;;;5.00;99.90;;;;;;5434339;26;20422;-80
2024/04/22 07:16:51;;;;;;;;;;;5.00;99.90;;;;;;5458818;25;19938;-80
2024/04/22 07:19:18;;;;;;;;;;;5.10;99.90;;;;;;5465012;26;19939;-79
2024/04/22 07:21:45;;;;;;;;;;;5.20;99.90;;;;;;5431713;26;19928;-80
2024/04/22 07:24:11;;;;;;;;;;;5.30;99.90;;;;;;5435274;26;19951;-80
2024/04/22 07:26:38;;;;;;;;;;;5.40;99.90;;;;;;5448709;26;19939;-80
2024/04/22 07:29:05;;;;;;;;;;;5.40;99.90;;;;;;5493921;26;19997;-80
2024/04/22 07:31:32;;;;;;;;;;;5.50;99.90;;;;;;5463601;26;19989;-79
2024/04/22 07:33:59;;;;;;;;;;;5.50;99.90;;;;;;5463440;26;19932;-80
2024/04/22 07:36:35;;;;;;;;;;;5.80;99.90;;;;;;5519592;26;19928;-79
2024/04/22 07:39:02;;;;;;;;;;;5.80;99.90;;;;;;5432770;26;19934;-77
2024/04/22 07:41:30;;;;;;;;;;;5.80;99.90;;;;;;5459946;26;19928;-77
2024/04/22 07:43:57;;;;;;;;;;;5.80;99.90;;;;;;5447998;26;19987;-77
2024/04/22 07:46:24;;;;;;;;;;;5.80;99.90;;;;;;5465868;26;20348;-77
2024/04/22 07:48:51;;;;;;;;;;;5.80;99.90;;;;;;5429060;26;20376;-77
2024/04/22 07:51:18;;;;;;;;;;;5.80;99.90;;;;;;5460738;26;19935;-79
2024/04/22 07:53:46;;;;;;;;;;;5.90;99.90;;;;;;5430132;25;19943;-79
2024/04/22 07:56:16;;;;;;;;;;;5.90;99.90;;;;;;5489968;26;19928;-76
2024/04/22 07:58:43;;;;;;;;;;;6.00;99.90;;;;;;5458993;26;19935;-76
2024/04/22 08:01:11;;;;;;;;;;;6.00;99.90;;;;;;5472964;26;19959;-76
2024/04/22 08:03:39;;;;;;;;;;;6.00;99.90;;;;;;5473028;26;19930;-76
2024/04/22 08:06:12;;;;;;;;;;;6.10;99.90;;;;;;5469363;26;19935;-76
2024/04/22 08:08:40;;;;;;;;;;;6.10;99.90;;;;;;5453026;26;19936;-75
2024/04/22 08:11:07;;;;;;;;;;;6.00;99.90;;;;;;5458688;26;19960;-75
2024/04/22 08:13:33;;;;;;;;;;;6.00;99.90;;;;;;5459287;26;19928;-76
2024/04/22 08:16:05;;;;;;;;;;;6.10;99.90;;;;;;5455645;26;19927;-76
2024/04/22 08:18:33;;;;;;;;;;;6.00;99.90;;;;;;5457461;26;19996;-76
2024/04/22 08:21:02;;;;;;;;;;;5.90;99.90;;;;;;5428451;26;19956;-76
2024/04/22 08:23:30;;;;;;;;;;;5.90;99.90;;;;;;5428584;26;19935;-76
2024/04/22 08:25:57;;;;;;;;;;;5.90;99.90;;;;;;5408679;26;19928;-77
2024/04/22 08:28:25;;;;;;;;;;;5.90;99.90;;;;;;5509319;25;19927;-76
2024/04/22 08:31:11;;;;;;;;;;;6.00;99.90;;;;;;5500751;25;20314;-77
2024/04/22 08:33:38;;;;;;;;;;;6.00;99.90;;;;;;5499347;25;20339;-76
2024/04/22 08:36:07;;;;;;;;;;;6.00;99.90;;;;;;5510375;26;19934;-76
2024/04/22 08:38:38;;;;;;;;;;;6.10;99.90;;;;;;5495867;26;19942;-77
2024/04/22 08:41:10;;;;;;;;;;;6.10;99.90;;;;;;5464405;26;19935;-76
2024/04/22 08:43:36;;;;;;;;;;;6.20;99.90;;;;;;5453216;26;19936;-75
2024/04/22 08:46:05;;;;;;;;;;;6.20;99.90;;;;;;5428438;26;19993;-75
2024/04/22 08:48:32;;;;;;;;;;;6.20;99.90;;;;;;5440993;26;20051;-77
2024/04/22 08:50:58;;;;;;;;;;;6.20;99.90;;;;;;5492200;26;20000;-77
2024/04/22 08:53:25;;;;;;;;;;;6.20;99.90;;;;;;5469271;26;19928;-76
2024/04/22 08:55:54;;;;;;;;;;;6.20;99.90;;;;;;5457780;26;19934;-75
2024/04/22 08:58:21;;;;;;;;;;;6.20;99.90;;;;;;5427827;26;20321;-76
2024/04/22 09:00:48;;;;;;;;;;;6.30;99.90;;;;;;5428055;26;19928;-77
2024/04/22 09:03:15;;;;;;;;;;;6.40;99.90;;;;;;5429251;25;19935;-76
2024/04/22 09:05:41;;;;;;;;;;;6.50;99.90;;;;;;5449545;26;19935;-76
2024/04/22 09:08:09;;;;;;;;;;;6.40;99.90;;;;;;5463819;26;19928;-75
2024/04/22 09:10:37;;;;;;;;;;;6.30;98.20;;;;;;5461426;26;19928;-76
2024/04/22 09:13:04;;;;;;;;;;;6.20;98.70;;;;;;5470032;26;19932;-76
2024/04/22 09:15:31;;;;;;;;;;;6.30;98.90;;;;;;5417651;26;20615;-76
2024/04/22 09:17:58;;;;;;;;;;;6.20;98.70;;;;;;5454891;26;19940;-76
2024/04/22 09:20:26;;;;;;;;;;;6.10;97.80;;;;;;5473853;26;19932;-76
2024/04/22 09:22:53;;;;;;;;;;;6.10;98.70;;;;;;5392041;26;19929;-76
2024/04/22 09:25:19;;;;;;;;;;;6.20;98.20;;;;;;5409874;26;19928;-75
2024/04/22 09:27:47;;;;;;;;;;;6.30;99.10;;;;;;5467213;26;19927;-76
2024/04/22 09:30:13;;;;;;;;;;;6.30;99.30;;;;;;5457141;26;19957;-76
2024/04/22 09:32:46;;;;;;;;;;;6.30;98.40;;;;;;5439595;26;19927;-75
2024/04/22 09:35:16;;;;;;;;;;;6.30;98.40;;;;;;5449015;26;19929;-76
2024/04/22 09:37:43;;;;;;;;;;;6.40;99.30;;;;;;5407092;26;19932;-76
2024/04/22 09:40:11;;;;;;;;;;;6.50;99.20;;;;;;5434200;26;19935;-76
2024/04/22 09:42:37;;;;;;;;;;;6.60;99.10;;;;;;5432027;26;19936;-76
2024/04/22 09:45:04;;;;;;;;;;;6.60;97.50;;;;;;5415565;26;20245;-75
2024/04/22 09:47:32;;;;;;;;;;;6.60;98.20;;;;;;5452639;26;19928;-75
2024/04/22 09:49:59;;;;;;;;;;;6.60;97.40;;;;;;5438336;26;20360;-75
2024/04/22 09:52:26;;;;;;;;;;;6.60;98.50;;;;;;5438242;26;19967;-76
2024/04/22 09:54:51;;;;;;;;;;;6.70;98.40;;;;;;5486130;26;19935;-75
2024/04/22 09:57:19;;;;;;;;;;;6.80;98.70;;;;;;5426814;26;19929;-76
2024/04/22 09:59:46;;;;;;;;;;;7.00;98.40;;;;;;5391885;26;19936;-75
2024/04/22 10:02:13;;;;;;;;;;;7.20;98.20;;;;;;5445061;26;20265;-76
2024/04/22 10:04:40;;;;;;;;;;;7.30;98.10;;;;;;5388590;26;20002;-76
2024/04/22 10:07:07;;;;;;;;;;;7.40;98.60;;;;;;5453026;26;19936;-75
2024/04/22 10:09:35;;;;;;;;;;;7.40;98.20;;;;;;5461204;26;19929;-75
2024/04/22 10:12:06;;;;;;;;;;;7.70;98.10;;;;;;5432948;26;19936;-76
2024/04/22 10:14:33;;;;;;;;;;;7.90;98.70;;;;;;5401596;26;19928;-75
2024/04/22 10:17:06;;;;;;;;;;;8.20;98.30;;;;;;5487275;26;19935;-76
2024/04/22 10:19:36;;;;;;;;;;;8.40;97.20;;;;;;5476605;26;20332;-75
2024/04/22 10:22:06;;;;;;;;;;;8.30;97.20;;;;;;5400702;26;20303;-75
2024/04/22 10:25:24;;;;;;;;;;;;;;;;;;;;;
2024/04/22 10:27:52;;;;;;;;;;;8.40;96.70;;;;;;5472480;25;19938;-77
2024/04/22 10:30:19;;;;;;;;;;;8.20;96.40;;;;;;5513562;26;19928;-78
2024/04/22 10:32:46;;;;;;;;;;;8.20;97.20;;;;;;5482359;25;19935;-77
2024/04/22 10:35:12;;;;;;;;;;;8.20;97.20;;;;;;5471887;26;19935;-77
2024/04/22 10:37:38;;;;;;;;;;;8.20;96.80;;;;;;5463760;26;19928;-76
2024/04/22 10:40:06;;;;;;;;;;;8.00;94.80;;;;;;5451854;25;20536;-76
2024/04/22 10:42:33;;;;;;;;;;;8.00;96.30;;;;;;5502144;26;19956;-76
2024/04/22 10:44:59;;;;;;;;;;;8.10;96.50;;;;;;5481059;25;20234;-77
2024/04/22 10:47:27;;;;;;;;;;;8.10;97.00;;;;;;5444440;25;19931;-75
2024/04/22 10:49:54;;;;;;;;;;;8.40;97.00;;;;;;5471410;26;20256;-75
2024/04/22 10:52:22;;;;;;;;;;;8.50;97.00;;;;;;5461271;25;19935;-78
2024/04/22 10:54:49;;;;;;;;;;;8.50;96.90;;;;;;5459991;26;19935;-78
2024/04/22 10:57:16;;;;;;;;;;;8.60;96.60;;;;;;5492134;25;20397;-77
2024/04/22 10:59:43;;;;;;;;;;;8.50;96.60;;;;;;5447677;26;19935;-76
2024/04/22 11:02:10;;;;;;;;;;;8.50;96.70;;;;;;5429910;26;19977;-77
2024/04/22 11:04:38;;;;;;;;;;;8.60;96.90;;;;;;5466143;26;19927;-76
2024/04/22 11:07:05;;;;;;;;;;;8.50;96.20;;;;;;5460225;26;19936;-78
2024/04/22 11:09:33;;;;;;;;;;;8.50;96.60;;;;;;5460269;26;19928;-76
2024/04/22 11:11:59;;;;;;;;;;;8.40;95.00;;;;;;5441161;25;19935;-77
2024/04/22 11:14:24;;;;;;;;;;;8.30;94.80;;;;;;5497471;26;19939;-77
2024/04/22 11:16:57;;;;;;;;;;;8.20;94.70;;;;;;5450746;26;20413;-77
2024/04/22 11:19:24;;;;;;;;;;;8.20;95.70;;;;;;5498583;26;19934;-77
2024/04/22 11:21:51;;;;;;;;;;;8.20;96.10;;;;;;5464753;26;19927;-77
2024/04/22 11:24:18;;;;;;;;;;;8.50;97.00;;;;;;5492054;25;19935;-76
2024/04/22 11:26:45;;;;;;;;;;;8.70;96.60;;;;;;5460983;25;20248;-75
2024/04/22 11:29:12;;;;;;;;;;;8.90;95.50;;;;;;5464829;26;19960;-74
2024/04/22 11:31:44;;;;;;;;;;;9.00;95.00;;;;;;5461684;26;19959;-74
2024/04/22 11:34:11;;;;;;;;;;;9.20;94.60;;;;;;5475224;26;19955;-74
2024/04/22 11:36:41;;;;;;;;;;;9.30;93.60;;;;;;5464998;26;19927;-74
2024/04/22 11:39:11;;;;;;;;;;;9.50;93.70;;;;;;5425867;26;19928;-75
2024/04/22 11:41:38;;;;;;;;;;;9.70;93.70;;;;;;5459557;26;19928;-76
2024/04/22 11:44:05;;;;;;;;;;;10.00;94.20;;;;;;5428663;26;19932;-76
2024/04/22 11:46:32;;;;;;;;;;;10.30;93.70;;;;;;5460288;26;19928;-75
2024/04/22 11:48:59;;;;;;;;;;;10.40;93.00;;;;;;5470240;25;19939;-74
2024/04/22 11:51:26;;;;;;;;;;;10.70;94.00;;;;;;5494889;26;19935;-75
2024/04/22 11:53:53;;;;;;;;;;;10.80;93.30;;;;;;5464497;26;19963;-74
2024/04/22 11:56:25;;;;;;;;;;;11.00;91.30;;;;;;5472335;26;19928;-75
2024/04/22 11:58:52;;;;;;;;;;;10.90;89.70;;;;;;5430458;26;19935;-74
2024/04/22 12:01:19;;;;;;;;;;;10.90;90.90;;;;;;5458881;26;19981;-75
2024/04/22 12:03:46;;;;;;;;;;;10.70;90.50;;;;;;5483939;26;19929;-76
2024/04/22 12:06:12;;;;;;;;;;;10.80;91.70;;;;;;5464364;26;19939;-75
2024/04/22 12:08:39;;;;;;;;;;;10.80;90.50;;;;;;5458251;26;19928;-76
2024/04/22 12:11:06;;;;;;;;;;;10.70;91.30;;;;;;5428239;26;19935;-75
2024/04/22 12:13:33;;;;;;;;;;;10.60;91.00;;;;;;5428203;26;20340;-75
2024/04/22 12:16:00;;;;;;;;;;;10.50;91.70;;;;;;5447232;26;19932;-75
2024/04/22 12:18:26;;;;;;;;;;;10.50;92.00;;;;;;5457512;26;19956;-74
2024/04/22 12:20:53;;;;;;;;;;;10.50;92.50;;;;;;5450126;26;19935;-74
2024/04/22 12:23:21;;;;;;;;;;;10.50;92.60;;;;;;5449818;26;19996;-74
2024/04/22 12:25:47;;;;;;;;;;;10.40;91.70;;;;;;5392237;26;20697;-75
2024/04/22 12:28:13;;;;;;;;;;;10.50;91.30;;;;;;5475859;26;19928;-76
2024/04/22 12:30:44;;;;;;;;;;;10.70;92.70;;;;;;5497909;26;19928;-74
2024/04/22 12:33:11;;;;;;;;;;;10.80;92.00;;;;;;5477618;26;19929;-76
2024/04/22 12:35:37;;;;;;;;;;;10.70;90.10;;;;;;5421854;26;19938;-75
2024/04/22 12:38:05;;;;;;;;;;;10.90;90.80;;;;;;5452392;26;19978;-75
2024/04/22 12:40:32;;;;;;;;;;;10.90;90.80;;;;;;5488078;26;19935;-75
2024/04/22 12:42:57;;;;;;;;;;;10.90;91.40;;;;;;5495246;26;19934;-75
2024/04/22 12:45:24;;;;;;;;;;;10.80;88.60;;;;;;5494524;26;20240;-75
2024/04/22 12:50:44;;;;;;;;;;;11.00;88.40;;;;;;5454645;26;20353;-75
2024/04/22 12:53:10;;;;;;;;;;;10.90;88.50;;;;;;5454503;26;19928;-76
2024/04/22 12:55:36;;;;;;;;;;;10.90;88.00;;;;;;5421377;26;20329;-75
2024/04/22 12:58:02;;;;;;;;;;;10.60;87.00;;;;;;5450683;26;19940;-75
2024/04/22 13:00:27;;;;;;;;;;;10.60;88.40;;;;;;5397395;26;19994;-75
2024/04/22 13:02:53;;;;;;;;;;;10.60;88.40;;;;;;5445224;26;19928;-75
2024/04/22 13:05:19;;;;;;;;;;;10.50;87.50;;;;;;5429056;26;19928;-77
2024/04/22 13:07:44;;;;;;;;;;;10.50;89.10;;;;;;5426136;26;19928;-75
2024/04/22 13:10:10;;;;;;;;;;;10.50;88.50;;;;;;5452229;26;20316;-77
2024/04/22 13:12:36;;;;;;;;;;;10.40;88.60;;;;;;5403692;26;20372;-77
2024/04/22 13:15:02;;;;;;;;;;;10.20;88.20;;;;;;5422422;26;19928;-79
2024/04/22 13:17:27;;;;;;;;;;;10.10;86.00;;;;;;5453432;26;19967;-77
2024/04/22 13:19:53;;;;;;;;;;;9.90;84.50;;;;;;5458103;26;19971;-77
2024/04/22 13:22:19;;;;;;;;;;;9.90;85.80;;;;;;5457992;26;19977;-77
2024/04/22 13:24:45;;;;;;;;;;;10.00;85.90;;;;;;5487946;26;19993;-77
2024/04/22 13:27:11;;;;;;;;;;;9.90;85.10;;;;;;5464521;26;19961;-77
2024/04/22 13:29:36;;;;;;;;;;;9.90;86.80;;;;;;5393062;26;19929;-77
2024/04/22 13:32:02;;;;;;;;;;;9.90;85.90;;;;;;5422213;26;19929;-77
2024/04/22 13:34:28;;;;;;;;;;;9.90;88.20;;;;;;5422251;26;19935;-77
2024/04/22 13:36:55;;;;;;;;;;;9.90;87.40;;;;;;5451670;26;19936;-77
2024/04/22 13:39:21;;;;;;;;;;;9.90;88.10;;;;;;5431833;26;21010;-77
2024/04/22 13:41:47;;;;;;;;;;;10.00;88.30;;;;;;5421968;26;19929;-77
2024/04/22 13:44:12;;;;;;;;;;;9.90;87.10;;;;;;5392858;26;19928;-76
2024/04/22 13:46:38;;;;;;;;;;;9.90;86.70;;;;;;5452997;26;19928;-76
2024/04/22 13:49:04;;;;;;;;;;;10.00;88.30;;;;;;5488134;26;19998;-76
2024/04/22 13:51:29;;;;;;;;;;;10.00;84.60;;;;;;5482296;26;19960;-76
2024/04/22 13:53:55;;;;;;;;;;;9.60;82.20;;;;;;5421734;26;19928;-77
2024/04/22 13:56:21;;;;;;;;;;;9.40;82.80;;;;;;5453130;26;20331;-77
2024/04/22 13:58:46;;;;;;;;;;;9.40;83.80;;;;;;5421524;26;19935;-77
2024/04/22 14:01:12;;;;;;;;;;;9.50;85.00;;;;;;5451991;26;19928;-76
2024/04/22 14:03:37;;;;;;;;;;;9.60;84.60;;;;;;5421309;26;19934;-77
2024/04/22 14:06:03;;;;;;;;;;;9.50;85.80;;;;;;5421734;26;19935;-76
2024/04/22 14:08:29;;;;;;;;;;;9.60;87.60;;;;;;5398775;26;20470;-77
2024/04/22 14:10:55;;;;;;;;;;;9.60;88.00;;;;;;5421048;26;19932;-77
2024/04/22 14:13:20;;;;;;;;;;;9.70;89.10;;;;;;5451378;26;19928;-76
2024/04/22 14:15:47;;;;;;;;;;;9.70;89.20;;;;;;5451073;26;19960;-76
2024/04/22 14:18:12;;;;;;;;;;;9.70;89.90;;;;;;5445168;26;19936;-78
2024/04/22 14:20:38;;;;;;;;;;;9.90;90.70;;;;;;5451272;26;19928;-77
2024/04/22 14:23:04;;;;;;;;;;;10.10;90.80;;;;;;5456548;26;20292;-77
2024/04/22 14:25:33;;;;;;;;;;;10.40;90.50;;;;;;5475816;26;19928;-77
2024/04/22 14:27:58;;;;;;;;;;;10.80;90.50;;;;;;5451442;26;20291;-77
2024/04/22 14:30:24;;;;;;;;;;;11.20;90.70;;;;;;5420532;26;19929;-78
2024/04/22 14:32:52;;;;;;;;;;;11.40;89.80;;;;;;5435548;26;19928;-77
2024/04/22 14:35:17;;;;;;;;;;;11.60;90.30;;;;;;5452269;26;19998;-77
2024/04/22 14:37:43;;;;;;;;;;;11.70;90.00;;;;;;5454016;26;20365;-77